• Join FlightAware (Why Join?)
  • Login
  • US Flag 
04:16PM EDT


 

Airport Tracker/Info


-or-


 

Live Flight TrackerFlight Track Log ✈ SWA305 ✈ 24-Nov-2013 ✈ KALB - KBWI

Flight Track Log - Related Links

Times and Time Zones

All times are in EST time to prevent confusion due to time zone crossing. See the SWA305 flight status page for this flight to view local times or setup timezone preferences in your user account.

Time Position Orientation Groundspeed Altitude Reporting Facility
EST Latitude Longitude Course Direction KTS MPH feet Rate Location/Type
02:53PM 42.7478 -73.8222 213° Southwest 149 171 2,100  Level Boston Center
02:54PM 42.7453 -73.8244 213° Southwest 149 171 2,200 1,380 Climbing Boston Center
02:54PM 42.7456 -73.8272 278° West 129 148 2,400 3,900 Climbing Boston Center
02:55PM 42.7372 -73.8939 260° West 180 207 6,600 4,560 Climbing Boston Center
02:56PM 42.7217 -73.9678 254° West 191 220 11,600 4,260 Climbing Boston Center
02:57PM 42.7058 -74.0578 257° West 249 287 15,300 3,900 Climbing Boston Center
02:58PM 42.6553 -74.1436 231° Southwest 289 333 19,500 3,120 Climbing Boston Center
02:59PM 42.5811 -74.1856 203° Southwest 340 391 21,600 2,460 Climbing Boston Center
03:00PM 42.4814 -74.1081 150° Southeast 409 471 24,700 1,620 Climbing Boston Center
03:01PM 42.3789 -74.0342 152° Southeast 419 482 25,000 240 Climbing Boston Center
03:02PM 42.2681 -73.9567 153° Southeast 446 513 25,200 540 Climbing Boston Center
03:03PM 42.1572 -73.8783 152° Southeast 451 519 26,200 1,320 Climbing Boston Center
03:04PM 42.0367 -73.8464 169° South 466 536 28,000 840 Climbing Boston Center
03:05PM 41.9194 -73.9011 199° South 453 521 28,000  Level Boston Center
03:06PM 41.7908 -73.9581 198° South 446 513 28,000  Level Boston Center
03:07PM 41.6756 -74.0097 199° South 440 506 28,000  Level Boston Center
03:08PM 41.5594 -74.0619 199° South 443 510 28,000  Level Boston Center
03:09PM 41.4428 -74.1131 198° South 442 509 28,000  Level Boston Center
03:10PM 41.3247 -74.1656 198° South 448 516 28,000  Level Boston Center
03:11PM 41.1831 -74.2283 198° South 448 516 28,000  Level Boston Center
03:12PM 41.0572 -74.2822 198° South 450 518 28,000  Level New York Center
03:13PM 40.9411 -74.3339 199° South 450 518 28,000  Level New York Center
03:14PM 40.8250 -74.3853 199° South 450 518 28,000  Level New York Center
03:15PM 40.7469 -74.4881 225° Southwest 421 484 28,000  Level New York Center
03:16PM 40.6725 -74.5961 228° Southwest 404 465 28,000  Level New York Center
03:17PM 40.5961 -74.7067 228° Southwest 404 465 28,000 -360 Level New York Center
03:18PM 40.5194 -74.8142 227° Southwest 404 465 27,300 -900 Descending New York Center
03:19PM 40.4447 -74.9244 228° Southwest 409 471 26,300 -1,080 Descending New York Center
03:20PM 40.3700 -75.0317 228° Southwest 409 471 25,200 -1,080 Descending New York Center
03:21PM 40.2997 -75.1333 228° Southwest 399 459 24,200 -1,020 Descending New York Center
03:22PM 40.2292 -75.2350 228° Southwest 394 453 23,200 -1,140 Descending New York Center
03:23PM 40.1675 -75.3233 228° Southwest 388 447 22,000 -1,620 Descending New York Center
03:24PM 40.1011 -75.4167 227° Southwest 370 426 20,000 -1,980 Descending New York Center
03:25PM 40.0286 -75.5150 226° Southwest 356 410 18,100 -1,020 Descending New York Center
03:26PM 39.9644 -75.6028 226° Southwest 340 391 18,000 -60 Descending New York Center
03:27PM 39.9089 -75.6856 229° Southwest 340 391 18,000  Level New York Center
03:28PM 39.8544 -75.7925 236° Southwest 335 386 18,000 -1,380 Level New York Center
03:30PM 39.7333 -76.0167 235° Southwest 314 361 13,600 -1,860 Descending Potomac TRACON
03:31PM 39.7000 -76.0833 237° Southwest 300 345 12,200 -1,260 Descending Potomac TRACON
03:32PM 39.6500 -76.1833 237° Southwest 279 321 11,300 -1,140 Descending Potomac TRACON
03:33PM 39.6167 -76.2500 237° Southwest 276 318 10,000 -1,380 Descending Potomac TRACON
03:34PM 39.5667 -76.3167 226° Southwest 277 319 8,700 -1,500 Descending Potomac TRACON
03:35PM 39.5000 -76.3667 210° Southwest 275 316 7,200 -1,260 Descending Potomac TRACON
03:36PM 39.4500 -76.4333 226° Southwest 267 307 6,200 -1,020 Descending Potomac TRACON
03:37PM 39.3833 -76.4833 210° Southwest 264 304 5,200 -1,200 Descending Potomac TRACON
03:38PM 39.3167 -76.5000 191° South 272 313 4,000 -1,380 Descending Potomac TRACON
03:39PM 39.2500 -76.5333 201° Southwest 262 302 2,600 -1,020 Descending Potomac TRACON
03:40PM 39.1833 -76.5667 201° Southwest 224 258 2,000 -600 Descending Potomac TRACON
03:41PM 39.1333 -76.6000 207° Southwest 184 212 1,400 -600 Descending Potomac TRACON
03:42PM 39.1333 -76.6333 270° West 114 131 900 -600 Descending Potomac TRACON
03:43PM 39.1500 -76.6500 322° Northwest 113 130 300 -660 Descending Potomac TRACON